Flight Track Log - Related Links

Times and Time Zones

All times are in EDT time to prevent confusion due to time zone crossing. See the N978AC flight status page for this flight to view local times or setup timezone preferences in your user account.

Time Position Orientation Groundspeed Altitude Reporting Facility
EDT Latitude Longitude Course Direction KTS MPH feet Rate Location/Type
Wed 05:03:44 PM 33.9500 -117.4667 220° Southwest 77 89 1,500  Level Southern California TRACON
Wed 05:04:38 PM 33.9333 -117.4833 220° Southwest 74 85 2,000 526 Climbing Southern California TRACON
Wed 05:05:38 PM 33.9333 -117.5000 270° West 73 84 2,500 450 Climbing Southern California TRACON
Wed 05:06:38 PM 33.9167 -117.5167 220° Southwest 74 85 2,900 450 Climbing Southern California TRACON
Wed 05:07:38 PM 33.9167 -117.5500 270° West 77 89 3,400 450 Climbing Southern California TRACON
Wed 05:08:38 PM 33.9333 -117.5667 320° Northwest 76 87 3,800 381 Climbing Southern California TRACON
Wed 05:09:44 PM 33.9333 -117.6000 270° West 80 92 4,200 397 Climbing Southern California TRACON
Wed 05:10:39 PM 33.9333 -117.6167 270° West 83 96 4,600 365 Climbing Southern California TRACON
Wed 05:11:39 PM 33.9500 -117.6500 301° West 80 92 4,900 350 Climbing Southern California TRACON
Wed 05:12:39 PM 33.9500 -117.6667 270° West 78 90 5,300 350 Climbing Southern California TRACON
Wed 05:13:39 PM 33.9667 -117.7000 301° West 84 97 5,600 300 Climbing Southern California TRACON
Wed 05:14:39 PM 33.9833 -117.7167 320° Northwest 82 94 5,900 250 Climbing Southern California TRACON
Wed 05:15:39 PM 33.9833 -117.7333 270° West 95 109 6,100 150 Climbing Southern California TRACON
Wed 05:16:39 PM 34.0000 -117.7667 301° West 98 113 6,200  Climbing Southern California TRACON
Wed 05:17:39 PM 34.0000 -117.8000 270° West 103 119 6,100 -95 Descending Southern California TRACON
Wed 05:18:45 PM 34.0167 -117.8333 301° West 97 112 6,000  Descending Southern California TRACON
Wed 05:19:46 PM 34.0333 -117.8667 301° West 94 108 6,100 52 Climbing Southern California TRACON
Wed 05:20:40 PM 34.0333 -117.9000 270° West 95 109 6,100 -52 Level Southern California TRACON
Wed 05:21:41 PM 34.0500 -117.9167 320° Northwest 90 104 6,000 -50 Descending Southern California TRACON
Wed 05:22:41 PM 34.0500 -117.9500 270° West 96 110 6,000 50 Level Southern California TRACON
Wed 05:23:41 PM 34.0667 -117.9833 301° West 92 106 6,100 100 Climbing Southern California TRACON
Wed 05:24:41 PM 34.0667 -118.0000 270° West 92 106 6,200 209 Climbing Southern California TRACON
Wed 05:25:36 PM 34.0833 -118.0333 301° West 78 90 6,500 298 Climbing Southern California TRACON
Wed 05:26:42 PM 34.1000 -118.0500 320° Northwest 76 87 6,800 286 Climbing Southern California TRACON
Wed 05:27:42 PM 34.1000 -118.0667 270° West 78 90 7,100 300 Climbing Southern California TRACON
Wed 05:28:42 PM 34.1000 -118.1000 270° West 79 91 7,400 313 Climbing Southern California TRACON
Wed 05:29:37 PM 34.1167 -118.1167 320° Northwest 74 85 7,700 298 Climbing Southern California TRACON
Wed 05:30:43 PM 34.1167 -118.1500 270° West 73 84 8,000 238 Climbing Southern California TRACON
Wed 05:31:43 PM 34.1167 -118.1667 270° West 70 81 8,200 150 Climbing Southern California TRACON
Wed 05:32:43 PM 34.1333 -118.1833 320° Northwest 62 71 8,300 99 Climbing Southern California TRACON
Wed 05:33:44 PM 34.1500 -118.2000 320° Northwest 66 76 8,400 149 Climbing Southern California TRACON
Wed 05:34:44 PM 34.1667 -118.2000 360° North 65 75 8,600 250 Climbing Southern California TRACON
Wed 05:35:44 PM 34.1833 -118.2167 320° Northwest 67 77 8,900 298 Climbing Southern California TRACON
Wed 05:36:45 PM 34.2000 -118.2333 320° Northwest 65 75 9,200 248 Climbing Southern California TRACON
Wed 05:37:45 PM 34.2167 -118.2333 360° North 67 77 9,400 200 Climbing Southern California TRACON
Wed 05:38:45 PM 34.2333 -118.2500 320° Northwest 73 84 9,600 200 Climbing Southern California TRACON
Wed 05:39:45 PM 34.2500 -118.2667 320° Northwest 70 81 9,800 189 Climbing Southern California TRACON
Wed 05:40:52 PM 34.2667 -118.2667 360° North 74 85 10,000 142 Climbing Southern California TRACON
Wed 05:41:52 PM 34.2833 -118.2833 320° Northwest 74 85 10,100 50 Climbing Southern California TRACON
Wed 05:42:52 PM 34.3000 -118.3000 320° Northwest 84 97 10,100 37 Level Southern California TRACON
Wed 05:44:34 PM 34.3353 -118.3264 328° Northwest 80 92 10,200  Climbing Los Angeles Center
Wed 05:45:36 PM 34.3503 -118.3439 316° Northwest 80 92 10,100 -48 Descending Los Angeles Center
Wed 05:46:38 PM 34.3706 -118.3592 328° Northwest 81 93 10,100  Level Los Angeles Center
Wed 05:47:40 PM 34.3867 -118.3767 318° Northwest 80 92 10,100  Level Los Angeles Center
Wed 05:48:42 PM 34.4047 -118.3928 324° Northwest 80 92 10,100  Level Los Angeles Center
Wed 05:49:44 PM 34.4233 -118.4056 330° Northwest 80 92 10,100 48 Level Los Angeles Center
Wed 05:50:46 PM 34.4453 -118.4214 329° Northwest 79 91 10,200  Climbing Los Angeles Center
Wed 05:51:49 PM 34.4628 -118.4367 324° Northwest 79 91 10,100  Descending Los Angeles Center
Wed 05:52:51 PM 34.4828 -118.4483 334° Northwest 79 91 10,200  Climbing Los Angeles Center
Wed 05:53:53 PM 34.5017 -118.4631 327° Northwest 79 91 10,100  Descending Los Angeles Center
Wed 05:54:55 PM 34.5183 -118.4781 323° Northwest 78 90 10,200  Climbing Los Angeles Center
Wed 05:55:57 PM 34.5428 -118.4922 334° Northwest 78 90 10,100  Descending Los Angeles Center
Wed 05:57:00 PM 34.5606 -118.5006 339° North 72 83 10,200  Climbing Los Angeles Center
Wed 05:58:02 PM 34.5842 -118.5128 337° Northwest 89 102 10,100 -48 Descending Los Angeles Center
Wed 05:59:04 PM 34.6031 -118.5256 331° Northwest 80 92 10,100  Level Los Angeles Center
Wed 06:00:06 PM 34.6192 -118.5297 348° North 61 70 10,100 48 Level Los Angeles Center
Wed 06:01:08 PM 34.6336 -118.5394 331° Northwest 59 68 10,200 48 Climbing Los Angeles Center
Wed 06:02:10 PM 34.6544 -118.5503 337° Northwest 66 76 10,200 -48 Level Los Angeles Center
Wed 06:03:13 PM 34.6742 -118.5683 323° Northwest 88 101 10,100  Descending Los Angeles Center
Wed 06:04:15 PM 34.6881 -118.5906 307° West 82 94 10,200  Climbing Los Angeles Center
Wed 06:05:17 PM 34.7058 -118.6122 315° West 88 101 10,100 -48 Descending Los Angeles Center
Wed 06:06:19 PM 34.7225 -118.6317 316° Northwest 85 98 10,100 48 Level Los Angeles Center
Wed 06:07:21 PM 34.7417 -118.6558 314° West 84 97 10,200  Climbing Los Angeles Center
Wed 06:08:23 PM 34.7544 -118.6786 304° West 83 96 10,100  Descending Los Angeles Center
Wed 06:09:26 PM 34.7708 -118.6953 320° Northwest 79 91 10,200 48 Climbing Los Angeles Center
Wed 06:10:28 PM 34.7875 -118.7156 315° West 84 97 10,200 -48 Level Los Angeles Center
Wed 06:11:30 PM 34.8033 -118.7350 315° West 81 93 10,100  Descending Los Angeles Center
Wed 06:12:32 PM 34.8169 -118.7556 309° West 78 90 10,200 -48 Climbing Los Angeles Center
Wed 06:13:34 PM 34.8433 -118.7828 320° Northwest 100 115 10,000 -48 Descending Los Angeles Center
Wed 06:14:36 PM 34.8558 -118.8019 308° West 74 85 10,100 97 Climbing Los Angeles Center
Wed 06:15:38 PM 34.8636 -118.8250 292° West 73 84 10,200 48 Climbing Los Angeles Center
Wed 06:16:40 PM 34.8758 -118.8494 301° West 80 92 10,200 -48 Level Los Angeles Center
Wed 06:17:42 PM 34.8911 -118.8725 309° West 83 96 10,100  Descending Los Angeles Center
Wed 06:18:44 PM 34.9042 -118.8953 305° West 77 89 10,200  Climbing Los Angeles Center
Wed 06:19:46 PM 34.9158 -118.9194 300° West 80 92 10,100 -48 Descending Los Angeles Center
Wed 06:20:49 PM 34.9289 -118.9406 307° West 79 91 10,100 48 Level Los Angeles Center
Wed 06:21:51 PM 34.9417 -118.9622 306° West 79 91 10,200 48 Climbing Los Angeles Center
Wed 06:22:53 PM 34.9633 -118.9836 321° Northwest 80 92 10,200 -48 Level Los Angeles Center
Wed 06:23:55 PM 34.9797 -119.0050 313° West 82 94 10,100 -48 Descending Los Angeles Center
Wed 06:24:57 PM 34.9967 -119.0253 316° Northwest 87 100 10,100  Level Los Angeles Center
Wed 06:25:59 PM 35.0094 -119.0456 308° West 80 92 10,100  Level Los Angeles Center
Wed 06:27:01 PM 35.0231 -119.0656 310° West 79 91 10,100 48 Level Los Angeles Center
Wed 06:28:03 PM 35.0383 -119.0878 310° West 74 85 10,200  Climbing Los Angeles Center
Wed 06:29:06 PM 35.0517 -119.1119 304° West 82 94 10,100 -48 Descending Los Angeles Center
Wed 06:30:08 PM 35.0681 -119.1331 313° West 88 101 10,100  Level Los Angeles Center
Wed 06:31:10 PM 35.0825 -119.1528 312° West 84 97 10,100  Level Los Angeles Center
Wed 06:32:12 PM 35.0933 -119.1753 300° West 82 94 10,100 48 Level Los Angeles Center
Wed 06:33:14 PM 35.1067 -119.1936 312° West 75 86 10,200 48 Climbing Los Angeles Center
Wed 06:34:16 PM 35.1233 -119.2172 311° West 75 86 10,200  Level Los Angeles Center
Wed 06:35:18 PM 35.1394 -119.2381 313° West 78 90 10,200 -48 Level Los Angeles Center
Wed 06:36:21 PM 35.1547 -119.2589 312° West 79 91 10,100 -48 Descending Los Angeles Center
Wed 06:37:23 PM 35.1681 -119.2783 310° West 79 91 10,100 48 Level Los Angeles Center
Wed 06:38:25 PM 35.1811 -119.2967 311° West 76 87 10,200 48 Climbing Los Angeles Center
Wed 06:39:27 PM 35.1972 -119.3206 310° West 76 87 10,200  Level Los Angeles Center
Wed 06:40:29 PM 35.2125 -119.3403 313° West 76 87 10,200 -38 Level Los Angeles Center
Wed 06:42:05 PM 35.2344 -119.3761 307° West 79 91 10,100  Descending Oakland Center
Wed 06:43:06 PM 35.2472 -119.3972 307° West 80 92 10,200 66 Climbing Oakland Center
Wed 06:43:36 PM 35.2528 -119.4044 313° West 80 92 10,200 -65 Level Los Angeles Center
Wed 06:44:38 PM 35.2667 -119.4242 311° West 79 91 10,100 -48 Descending Los Angeles Center
Wed 06:45:40 PM 35.2850 -119.4478 314° West 79 91 10,100  Level Los Angeles Center
Wed 06:46:42 PM 35.3003 -119.4642 319° Northwest 79 91 10,100 48 Level Los Angeles Center
Wed 06:47:44 PM 35.3139 -119.4814 314° West 75 86 10,200 48 Climbing Los Angeles Center
Wed 06:48:46 PM 35.3258 -119.5003 308° West 75 86 10,200  Level Los Angeles Center
Wed 06:49:48 PM 35.3336 -119.5283 289° West 82 94 10,200 -48 Level Los Angeles Center
Wed 06:50:51 PM 35.3522 -119.5528 313° West 81 93 10,100 -48 Descending Los Angeles Center
Wed 06:51:53 PM 35.3681 -119.5708 317° Northwest 81 93 10,100  Level Los Angeles Center
Wed 06:52:55 PM 35.3822 -119.5886 314° West 80 92 10,100  Level Los Angeles Center
Wed 06:53:57 PM 35.3964 -119.6056 316° Northwest 76 87 10,100 48 Level Los Angeles Center
Wed 06:54:59 PM 35.4103 -119.6239 313° West 75 86 10,200  Climbing Los Angeles Center
Wed 06:56:01 PM 35.4236 -119.6489 303° West 78 90 10,100 -48 Descending Los Angeles Center
Wed 06:57:03 PM 35.4428 -119.6733 314° West 82 94 10,100 48 Level Los Angeles Center
Wed 06:58:06 PM 35.4550 -119.6939 306° West 82 94 10,200 48 Climbing Los Angeles Center
Wed 06:59:08 PM 35.4656 -119.7144 302° West 76 87 10,200 -48 Level Los Angeles Center
Wed 07:00:10 PM 35.4806 -119.7344 313° West 76 87 10,100 -48 Descending Los Angeles Center
Wed 07:01:12 PM 35.4967 -119.7550 314° West 78 90 10,100  Level Los Angeles Center
Wed 07:02:14 PM 35.5144 -119.7800 311° West 81 93 10,100  Level Los Angeles Center
Wed 07:03:16 PM 35.5275 -119.8000 309° West 81 93 10,100  Level Los Angeles Center
Wed 07:04:18 PM 35.5425 -119.8217 310° West 80 92 10,100  Level Los Angeles Center
Wed 07:05:21 PM 35.5575 -119.8425 312° West 81 93 10,100  Level Los Angeles Center
Wed 07:06:23 PM 35.5711 -119.8650 307° West 81 93 10,100 48 Level Los Angeles Center
Wed 07:07:25 PM 35.5858 -119.8833 315° West 80 92 10,200 48 Climbing Los Angeles Center
Wed 07:08:27 PM 35.6017 -119.9050 312° West 75 86 10,200  Level Los Angeles Center
Wed 07:09:29 PM 35.6125 -119.9308 297° West 78 90 10,200 -48 Level Los Angeles Center
Wed 07:10:31 PM 35.6294 -119.9542 312° West 85 98 10,100  Descending Los Angeles Center
Wed 07:11:34 PM 35.6447 -119.9733 314° West 85 98 10,200 48 Climbing Los Angeles Center
Wed 07:12:36 PM 35.6581 -119.9903 314° West 78 90 10,200  Level Los Angeles Center
Wed 07:13:38 PM 35.6756 -120.0122 314° West 75 86 10,200  Level Los Angeles Center
Wed 07:14:40 PM 35.6881 -120.0378 301° West 80 92 10,200  Level Los Angeles Center
Wed 07:15:42 PM 35.7050 -120.0556 320° Northwest 80 92 10,200  Level Los Angeles Center
Wed 07:16:44 PM 35.7186 -120.0744 312° West 80 92 10,200  Level Los Angeles Center
Wed 07:17:46 PM 35.7342 -120.0919 318° Northwest 80 92 10,200  Level Los Angeles Center
Wed 07:18:48 PM 35.7481 -120.1211 300° West 81 93 10,200 -46 Level Los Angeles Center
Wed 07:19:57 PM 35.7661 -120.1419 317° Northwest 83 96 10,100 -46 Descending Oakland Center
Wed 07:20:58 PM 35.7831 -120.1631 315° West 86 99 10,100 49 Level Oakland Center
Wed 07:21:59 PM 35.7972 -120.1825 312° West 83 96 10,200 49 Climbing Oakland Center
Wed 07:23:01 PM 35.8144 -120.2100 308° West 82 94 10,200 -49 Level Oakland Center
Wed 07:24:02 PM 35.8311 -120.2314 314° West 83 96 10,100 -49 Descending Oakland Center
Wed 07:25:04 PM 35.8475 -120.2494 318° Northwest 83 96 10,100  Level Oakland Center
Wed 07:26:05 PM 35.8650 -120.2678 320° Northwest 83 96 10,100  Level Oakland Center
Wed 07:27:07 PM 35.8814 -120.2850 320° Northwest 82 94 10,100 49 Level Oakland Center
Wed 07:28:08 PM 35.8975 -120.3014 321° Northwest 80 92 10,200 49 Climbing Oakland Center
Wed 07:29:09 PM 35.9133 -120.3197 317° Northwest 79 91 10,200  Level Oakland Center
Wed 07:30:11 PM 35.9286 -120.3394 314° West 79 91 10,200  Level Oakland Center
Wed 07:31:12 PM 35.9492 -120.3622 318° Northwest 81 93 10,200 -49 Level Oakland Center
Wed 07:32:14 PM 35.9672 -120.3825 318° Northwest 84 97 10,100 -49 Descending Oakland Center
Wed 07:33:15 PM 35.9853 -120.4039 316° Northwest 88 101 10,100 49 Level Oakland Center
Wed 07:34:16 PM 36.0033 -120.4197 325° Northwest 81 93 10,200 49 Climbing Oakland Center
Wed 07:35:18 PM 36.0214 -120.4356 325° Northwest 82 94 10,200  Level Oakland Center
Wed 07:36:19 PM 36.0389 -120.4525 322° Northwest 82 94 10,200  Level Oakland Center
Wed 07:37:21 PM 36.0531 -120.4750 308° West 81 93 10,200  Level Oakland Center
Wed 07:38:22 PM 36.0711 -120.4939 320° Northwest 83 96 10,200  Level Oakland Center
Wed 07:39:23 PM 36.0906 -120.5178 315° West 83 96 10,200  Level Oakland Center
Wed 07:40:25 PM 36.1089 -120.5375 319° Northwest 84 97 10,200 -49 Level Oakland Center
Wed 07:41:26 PM 36.1231 -120.5631 304° West 85 98 10,100 -49 Descending Oakland Center
Wed 07:42:28 PM 36.1417 -120.5825 320° Northwest 89 102 10,100  Level Oakland Center
Wed 07:43:29 PM 36.1586 -120.6014 318° Northwest 87 100 10,100 49 Level Oakland Center
Wed 07:44:30 PM 36.1742 -120.6228 312° West 85 98 10,200 49 Climbing Oakland Center
Wed 07:45:32 PM 36.1919 -120.6442 316° Northwest 86 99 10,200 -49 Level Oakland Center
Wed 07:46:33 PM 36.2086 -120.6642 316° Northwest 86 99 10,100 -49 Descending Oakland Center
Wed 07:47:35 PM 36.2272 -120.6881 314° West 84 97 10,100 49 Level Oakland Center
Wed 07:48:36 PM 36.2439 -120.7075 317° Northwest 84 97 10,200  Climbing Oakland Center
Wed 07:49:38 PM 36.2603 -120.7269 316° Northwest 83 96 10,100  Descending Oakland Center
Wed 07:50:39 PM 36.2772 -120.7458 318° Northwest 83 96 10,200 49 Climbing Oakland Center
Wed 07:51:41 PM 36.2936 -120.7664 315° West 83 96 10,200 -49 Level Oakland Center
Wed 07:52:42 PM 36.3111 -120.7889 314° West 86 99 10,100 -49 Descending Oakland Center
Wed 07:53:44 PM 36.3292 -120.8075 320° Northwest 86 99 10,100  Level Oakland Center
Wed 07:54:45 PM 36.3456 -120.8281 315° West 85 98 10,100 49 Level Oakland Center
Wed 07:55:47 PM 36.3628 -120.8533 310° West 83 96 10,200 49 Climbing Oakland Center
Wed 07:56:48 PM 36.3797 -120.8750 314° West 84 97 10,200 -49 Level Oakland Center
Wed 07:57:50 PM 36.3989 -120.8922 324° Northwest 85 98 10,100 -98 Descending Oakland Center
Wed 07:58:51 PM 36.4164 -120.9117 318° Northwest 85 98 10,000 -49 Descending Oakland Center
Wed 07:59:53 PM 36.4350 -120.9300 322° Northwest 85 98 10,000  Level Oakland Center
Wed 08:00:54 PM 36.4533 -120.9481 322° Northwest 85 98 10,000  Level Oakland Center
Wed 08:01:56 PM 36.4686 -120.9689 312° West 83 96 10,000  Level Oakland Center
Wed 08:02:57 PM 36.4842 -120.9894 313° West 83 96 10,000 49 Level Oakland Center
Wed 08:03:59 PM 36.5050 -121.0122 319° Northwest 84 97 10,100 49 Climbing Oakland Center
Wed 08:05:00 PM 36.5228 -121.0306 320° Northwest 83 96 10,100  Level Oakland Center
Wed 08:06:01 PM 36.5408 -121.0533 315° West 89 102 10,100 -49 Level Oakland Center
Wed 08:07:03 PM 36.5586 -121.0756 315° West 90 104 10,000 -49 Descending Oakland Center
Wed 08:08:04 PM 36.5761 -121.0964 316° Northwest 89 102 10,000 -146 Level Oakland Center
Wed 08:09:06 PM 36.5953 -121.1178 318° Northwest 90 104 9,700 -390 Descending Oakland Center
Wed 08:10:07 PM 36.6158 -121.1417 317° Northwest 98 113 9,200 -488 Descending Oakland Center
Wed 08:11:09 PM 36.6353 -121.1678 313° West 100 115 8,700 -537 Descending Oakland Center
Wed 08:12:10 PM 36.6589 -121.1975 315° West 102 117 8,100 -341 Descending Oakland Center
Wed 08:13:12 PM 36.6786 -121.2203 317° Northwest 98 113 8,000  Descending Oakland Center
Wed 08:14:13 PM 36.6961 -121.2417 316° Northwest 93 107 8,100 49 Climbing Oakland Center
Wed 08:15:15 PM 36.7114 -121.2644 310° West 89 102 8,100  Level Oakland Center
Wed 08:16:16 PM 36.7297 -121.2825 322° Northwest 88 101 8,100  Level Oakland Center
Wed 08:17:18 PM 36.7469 -121.3042 315° West 88 101 8,100 -195 Level Oakland Center
Wed 08:18:19 PM 36.7650 -121.3258 316° Northwest 88 101 7,700 -537 Descending Oakland Center
Wed 08:19:21 PM 36.7856 -121.3497 317° Northwest 95 109 7,000 -732 Descending Oakland Center
Wed 08:20:22 PM 36.8072 -121.3753 317° Northwest 91 105 6,200 -488 Descending Oakland Center
Wed 08:21:24 PM 36.8244 -121.4014 309° West 93 107 6,000 -49 Descending Oakland Center
Wed 08:22:25 PM 36.8417 -121.4253 312° West 94 108 6,100 49 Climbing Oakland Center
Wed 08:23:27 PM 36.8597 -121.4439 320° Northwest 91 105 6,100  Level Oakland Center
Wed 08:24:28 PM 36.8800 -121.4639 322° Northwest 90 104 6,100 -49 Level Oakland Center
Wed 08:25:30 PM 36.8986 -121.4839 319° Northwest 90 104 6,000 -49 Descending Oakland Center
Wed 08:26:31 PM 36.9150 -121.5061 313° West 89 102 6,000  Level Oakland Center
Wed 08:27:32 PM 36.9322 -121.5283 314° West 89 102 6,000 49 Level Oakland Center
Wed 08:28:34 PM 36.9500 -121.5481 318° Northwest 89 102 6,100  Climbing Oakland Center
Wed 08:29:35 PM 36.9697 -121.5758 312° West 89 102 6,000 -49 Descending Oakland Center
Wed 08:30:37 PM 36.9892 -121.5947 322° Northwest 89 102 6,000 49 Level Oakland Center
Wed 08:31:38 PM 37.0078 -121.6136 321° Northwest 89 102 6,100 49 Climbing Oakland Center
Wed 08:32:39 PM 37.0233 -121.6372 310° West 89 102 6,100  Level Oakland Center
Wed 08:33:41 PM 37.0386 -121.6608 309° West 88 101 6,100  Level Oakland Center
Wed 08:34:42 PM 37.0553 -121.6828 314° West 88 101 6,100 -146 Level Oakland Center
Wed 08:35:44 PM 37.0722 -121.7058 313° West 89 102 5,800 -341 Descending Oakland Center
Wed 08:36:45 PM 37.0825 -121.7339 295° West 87 100 5,400 -295 Descending Oakland Center
Wed 08:37:46 PM 37.0797 -121.7700 265° West 91 105 5,200 -98 Descending Oakland Center
Wed 08:38:48 PM 37.0764 -121.8100 264° West 94 108 5,200  Level Oakland Center
Wed 08:39:49 PM 37.0931 -121.8342 311° West 97 112 5,200  Level Oakland Center
Wed 08:40:50 PM 37.1094 -121.8575 311° West 94 108 5,200  Level Oakland Center
Wed 08:41:52 PM 37.1247 -121.8814 309° West 93 107 5,200  Level Oakland Center
Wed 08:42:53 PM 37.1397 -121.9053 308° West 92 106 5,200  Level Oakland Center
Wed 08:43:54 PM 37.1575 -121.9272 315° West 92 106 5,200 -244 Level Oakland Center
Wed 08:44:56 PM 37.1839 -121.9367 344° North 99 114 4,700 -293 Descending Oakland Center
Wed 08:45:57 PM 37.2114 -121.9483 341° North 97 112 4,600 -98 Descending Oakland Center
Wed 08:46:58 PM 37.2364 -121.9769 318° Northwest 98 113 4,500 -197 Descending Oakland Center
Wed 08:47:59 PM 37.2572 -122.0025 316° Northwest 99 114 4,200 -244 Descending Oakland Center
Wed 08:49:01 PM 37.2808 -122.0269 321° Northwest 104 120 4,000 -98 Descending Oakland Center
Wed 08:50:02 PM 37.3008 -122.0486 319° Northwest 103 119 4,000  Level Oakland Center
Wed 08:51:03 PM 37.3208 -122.0683 322° Northwest 97 112 4,000 49 Level Oakland Center
Wed 08:52:05 PM 37.3411 -122.0892 321° Northwest 97 112 4,100 49 Climbing Oakland Center
Wed 08:53:06 PM 37.3608 -122.1086 322° Northwest 95 109 4,100 -120 Level Oakland Center
Wed 08:53:45 PM 37.3833 -122.1167 344° North 101 116 3,900 -485 Descending Northern Cal TRACON
Wed 08:54:45 PM 37.4000 -122.1333 322° Northwest 98 113 3,300 -500 Descending Northern Cal TRACON
Wed 08:55:45 PM 37.4167 -122.1500 322° Northwest 94 108 2,900 -500 Descending Northern Cal TRACON
Wed 08:56:45 PM 37.4500 -122.1833 322° Northwest 94 108 2,300 -605 Descending Northern Cal TRACON
Wed 08:57:44 PM 37.4667 -122.2000 322° Northwest 95 109 1,700 -605 Descending Northern Cal TRACON
Wed 08:58:44 PM 37.4833 -122.2167 322° Northwest 94 108 1,100 -600 Descending Northern Cal TRACON
Wed 08:59:14 PM 37.4928 -122.2300 312° West 95 109 800 -659 Descending Oakland Center
Wed 09:00:15 PM 37.5078 -122.2472 318° Northwest 86 99 100 -689 Descending Oakland Center
Wed 09:02:00 PM 37.5118 -122.2495 125° Southeast  Level Estimated
Wed 09:09:00 PM 37.5118 -122.2495 313° West  Level Estimated

Login

Don't have an account? Register now (free) for customized features, flight alerts, and more!